sensor_id;sensor_type;location;lat;lon;timestamp;pressure;altitude;pressure_sealevel;temperature;humidity
41040;BME280;48586;50.122;18.972;2023-04-21T00:02:03;98670.22;;;8.06;57.96
41040;BME280;48586;50.122;18.972;2023-04-21T00:04:07;98668.38;;;8.06;58.13
41040;BME280;48586;50.122;18.972;2023-04-21T00:06:14;98664.28;;;8.04;57.99
41040;BME280;48586;50.122;18.972;2023-04-21T00:08:23;98660.00;;;8.03;58.11
41040;BME280;48586;50.122;18.972;2023-04-21T00:10:31;98672.69;;;8.00;58.32
41040;BME280;48586;50.122;18.972;2023-04-21T00:12:35;98658.22;;;7.96;58.21
41040;BME280;48586;50.122;18.972;2023-04-21T00:14:40;98661.28;;;7.93;58.23
41040;BME280;48586;50.122;18.972;2023-04-21T00:16:44;98657.22;;;7.91;58.39
41040;BME280;48586;50.122;18.972;2023-04-21T00:18:52;98657.44;;;7.89;58.46
41040;BME280;48586;50.122;18.972;2023-04-21T00:20:57;98654.78;;;7.89;58.14
41040;BME280;48586;50.122;18.972;2023-04-21T00:23:01;98656.03;;;7.87;57.93
41040;BME280;48586;50.122;18.972;2023-04-21T00:25:06;98657.47;;;7.83;58.37
41040;BME280;48586;50.122;18.972;2023-04-21T00:27:14;98657.88;;;7.80;58.42
41040;BME280;48586;50.122;18.972;2023-04-21T00:29:18;98656.66;;;7.75;58.07
41040;BME280;48586;50.122;18.972;2023-04-21T00:31:22;98651.59;;;7.74;58.30
41040;BME280;48586;50.122;18.972;2023-04-21T00:33:27;98657.88;;;7.73;58.23
41040;BME280;48586;50.122;18.972;2023-04-21T00:35:31;98656.69;;;7.69;58.37
41040;BME280;48586;50.122;18.972;2023-04-21T00:37:35;98653.66;;;7.65;58.46
41040;BME280;48586;50.122;18.972;2023-04-21T00:39:40;98647.53;;;7.65;58.65
41040;BME280;48586;50.122;18.972;2023-04-21T00:41:47;98654.06;;;7.62;58.71
41040;BME280;48586;50.122;18.972;2023-04-21T00:44:05;98652.84;;;7.58;58.82
41040;BME280;48586;50.122;18.972;2023-04-21T00:46:12;98655.72;;;7.57;58.92
41040;BME280;48586;50.122;18.972;2023-04-21T00:48:16;98649.00;;;7.54;59.30
41040;BME280;48586;50.122;18.972;2023-04-21T00:50:20;98654.06;;;7.56;58.93
41040;BME280;48586;50.122;18.972;2023-04-21T00:52:26;98654.06;;;7.56;59.48
41040;BME280;48586;50.122;18.972;2023-04-21T00:54:34;98647.97;;;7.55;59.37
41040;BME280;48586;50.122;18.972;2023-04-21T00:56:38;98647.97;;;7.55;59.08
41040;BME280;48586;50.122;18.972;2023-04-21T00:58:44;98650.84;;;7.54;59.09
41040;BME280;48586;50.122;18.972;2023-04-21T01:00:51;98648.41;;;7.52;59.04
41040;BME280;48586;50.122;18.972;2023-04-21T01:02:55;98644.09;;;7.51;58.92
41040;BME280;48586;50.122;18.972;2023-04-21T01:05:02;98649.84;;;7.48;58.75
41040;BME280;48586;50.122;18.972;2023-04-21T01:07:08;98651.88;;;7.46;58.44
41040;BME280;48586;50.122;18.972;2023-04-21T01:09:12;98658.19;;;7.45;58.52
41040;BME280;48586;50.122;18.972;2023-04-21T01:11:17;98652.09;;;7.44;58.26
41040;BME280;48586;50.122;18.972;2023-04-21T01:13:22;98655.34;;;7.40;58.64
41040;BME280;48586;50.122;18.972;2023-04-21T01:15:26;98651.25;;;7.37;58.55
41040;BME280;48586;50.122;18.972;2023-04-21T01:17:36;98655.72;;;7.37;58.38
41040;BME280;48586;50.122;18.972;2023-04-21T01:19:42;98662.06;;;7.36;58.44
41040;BME280;48586;50.122;18.972;2023-04-21T01:21:50;98655.16;;;7.35;58.52
41040;BME280;48586;50.122;18.972;2023-04-21T01:23:58;98657.97;;;7.33;58.48
41040;BME280;48586;50.122;18.972;2023-04-21T01:26:06;98662.47;;;7.33;58.47
41040;BME280;48586;50.122;18.972;2023-04-21T01:28:11;98667.19;;;7.31;58.64
41040;BME280;48586;50.122;18.972;2023-04-21T01:30:16;98667.38;;;7.29;58.94
41040;BME280;48586;50.122;18.972;2023-04-21T01:32:22;98659.84;;;7.26;58.94
41040;BME280;48586;50.122;18.972;2023-04-21T01:34:28;98667.59;;;7.28;58.60
41040;BME280;48586;50.122;18.972;2023-04-21T01:36:35;98668.59;;;7.27;58.58
41040;BME280;48586;50.122;18.972;2023-04-21T01:38:42;98663.91;;;7.29;58.92
41040;BME280;48586;50.122;18.972;2023-04-21T01:40:48;98654.94;;;7.30;59.07
41040;BME280;48586;50.122;18.972;2023-04-21T01:42:55;98648.81;;;7.29;59.36
41040;BME280;48586;50.122;18.972;2023-04-21T01:45:01;98644.53;;;7.28;59.05
41040;BME280;48586;50.122;18.972;2023-04-21T01:47:06;98643.13;;;7.25;59.18
41040;BME280;48586;50.122;18.972;2023-04-21T01:49:13;98657.38;;;7.24;59.25
41040;BME280;48586;50.122;18.972;2023-04-21T01:51:18;98658.19;;;7.25;59.05
41040;BME280;48586;50.122;18.972;2023-04-21T01:53:23;98657.38;;;7.24;58.80
41040;BME280;48586;50.122;18.972;2023-04-21T01:55:29;98651.28;;;7.24;59.36
41040;BME280;48586;50.122;18.972;2023-04-21T01:57:34;98649.44;;;7.24;59.42
41040;BME280;48586;50.122;18.972;2023-04-21T01:59:39;98651.06;;;7.25;59.16
41040;BME280;48586;50.122;18.972;2023-04-21T02:01:43;98652.09;;;7.24;59.15
41040;BME280;48586;50.122;18.972;2023-04-21T02:03:47;98656.34;;;7.25;59.28
41040;BME280;48586;50.122;18.972;2023-04-21T02:05:52;98653.72;;;7.25;59.26
41040;BME280;48586;50.122;18.972;2023-04-21T02:07:56;98651.47;;;7.29;59.06
41040;BME280;48586;50.122;18.972;2023-04-21T02:10:01;98652.91;;;7.32;58.81
41040;BME280;48586;50.122;18.972;2023-04-21T02:12:08;98660.44;;;7.35;58.87
41040;BME280;48586;50.122;18.972;2023-04-21T02:14:16;98652.06;;;7.38;58.79
41040;BME280;48586;50.122;18.972;2023-04-21T02:16:22;98653.50;;;7.40;59.14
41040;BME280;48586;50.122;18.972;2023-04-21T02:18:27;98651.66;;;7.41;59.43
41040;BME280;48586;50.122;18.972;2023-04-21T02:20:31;98648.41;;;7.45;59.42
41040;BME280;48586;50.122;18.972;2023-04-21T02:22:36;98649.41;;;7.51;59.48
41040;BME280;48586;50.122;18.972;2023-04-21T02:24:40;98645.13;;;7.57;59.53
41040;BME280;48586;50.122;18.972;2023-04-21T02:26:46;98641.03;;;7.61;59.28
41040;BME280;48586;50.122;18.972;2023-04-21T02:28:53;98643.06;;;7.65;59.42
41040;BME280;48586;50.122;18.972;2023-04-21T02:30:58;98636.09;;;7.71;59.40
41040;BME280;48586;50.122;18.972;2023-04-21T02:33:02;98639.94;;;7.75;59.06
41040;BME280;48586;50.122;18.972;2023-04-21T02:35:08;98639.31;;;7.80;59.16
41040;BME280;48586;50.122;18.972;2023-04-21T02:37:12;98643.41;;;7.82;58.99
41040;BME280;48586;50.122;18.972;2023-04-21T02:39:16;98643.75;;;7.86;59.12
41040;BME280;48586;50.122;18.972;2023-04-21T02:41:21;98646.22;;;7.87;58.91
41040;BME280;48586;50.122;18.972;2023-04-21T02:43:25;98643.97;;;7.91;58.86
41040;BME280;48586;50.122;18.972;2023-04-21T02:45:32;98647.81;;;7.95;58.94
41040;BME280;48586;50.122;18.972;2023-04-21T02:47:37;98649.00;;;7.99;58.85
41040;BME280;48586;50.122;18.972;2023-04-21T02:49:42;98649.00;;;8.06;58.85
41040;BME280;48586;50.122;18.972;2023-04-21T02:51:46;98645.69;;;8.10;58.68
41040;BME280;48586;50.122;18.972;2023-04-21T02:53:51;98642.81;;;8.12;58.49
41040;BME280;48586;50.122;18.972;2023-04-21T02:55:55;98638.31;;;8.12;58.54
41040;BME280;48586;50.122;18.972;2023-04-21T02:58:04;98644.25;;;8.14;58.27
41040;BME280;48586;50.122;18.972;2023-04-21T03:00:10;98650.38;;;8.15;58.29
41040;BME280;48586;50.122;18.972;2023-04-21T03:02:17;98658.09;;;8.16;58.02
41040;BME280;48586;50.122;18.972;2023-04-21T03:04:21;98640.72;;;8.20;57.90
41040;BME280;48586;50.122;18.972;2023-04-21T03:06:27;98641.53;;;8.21;58.13
41040;BME280;48586;50.122;18.972;2023-04-21T03:08:31;98641.75;;;8.19;57.89
41040;BME280;48586;50.122;18.972;2023-04-21T03:10:35;98641.38;;;8.16;58.70
41040;BME280;48586;50.122;18.972;2023-04-21T03:12:40;98646.91;;;8.14;59.05
41040;BME280;48586;50.122;18.972;2023-04-21T03:14:45;98642.81;;;8.12;60.62
41040;BME280;48586;50.122;18.972;2023-04-21T03:16:49;98644.06;;;8.09;60.57
41040;BME280;48586;50.122;18.972;2023-04-21T03:18:56;98644.72;;;8.05;59.87
41040;BME280;48586;50.122;18.972;2023-04-21T03:21:01;98644.97;;;7.96;59.82
41040;BME280;48586;50.122;18.972;2023-04-21T03:23:05;98646.00;;;7.89;59.41
41040;BME280;48586;50.122;18.972;2023-04-21T03:25:10;98651.13;;;7.84;59.24
41040;BME280;48586;50.122;18.972;2023-04-21T03:27:14;98644.22;;;7.76;58.73
41040;BME280;48586;50.122;18.972;2023-04-21T03:29:18;98650.56;;;7.68;58.55
41040;BME280;48586;50.122;18.972;2023-04-21T03:31:23;98652.22;;;7.63;58.14
41040;BME280;48586;50.122;18.972;2023-04-21T03:33:27;98642.66;;;7.55;57.92
41040;BME280;48586;50.122;18.972;2023-04-21T03:35:34;98657.78;;;7.48;57.83
41040;BME280;48586;50.122;18.972;2023-04-21T03:37:43;98658.97;;;7.39;57.48
41040;BME280;48586;50.122;18.972;2023-04-21T03:39:49;98651.28;;;7.31;57.53
41040;BME280;48586;50.122;18.972;2023-04-21T03:41:54;98654.94;;;7.23;57.38
41040;BME280;48586;50.122;18.972;2023-04-21T03:43:59;98656.59;;;7.17;57.59
41040;BME280;48586;50.122;18.972;2023-04-21T03:46:03;98654.97;;;7.10;57.43
41040;BME280;48586;50.122;18.972;2023-04-21T03:48:07;98651.50;;;7.03;57.69
41040;BME280;48586;50.122;18.972;2023-04-21T03:50:12;98655.00;;;6.96;57.66
41040;BME280;48586;50.122;18.972;2023-04-21T03:52:19;98656.59;;;6.91;57.65
41040;BME280;48586;50.122;18.972;2023-04-21T03:54:23;98659.69;;;6.88;57.58
41040;BME280;48586;50.122;18.972;2023-04-21T03:56:31;98656.63;;;6.84;57.57
41040;BME280;48586;50.122;18.972;2023-04-21T03:58:35;98666.78;;;6.81;57.90
41040;BME280;48586;50.122;18.972;2023-04-21T04:00:40;98666.19;;;6.79;58.00
41040;BME280;48586;50.122;18.972;2023-04-21T04:02:45;98663.94;;;6.75;58.26
41040;BME280;48586;50.122;18.972;2023-04-21T04:04:49;98677.38;;;6.74;58.27
41040;BME280;48586;50.122;18.972;2023-04-21T04:06:53;98672.06;;;6.74;58.23
41040;BME280;48586;50.122;18.972;2023-04-21T04:09:01;98682.66;;;6.74;58.38
41040;BME280;48586;50.122;18.972;2023-04-21T04:11:05;98676.38;;;6.75;58.50
41040;BME280;48586;50.122;18.972;2023-04-21T04:13:09;98676.16;;;6.77;58.62
41040;BME280;48586;50.122;18.972;2023-04-21T04:15:15;98687.97;;;6.81;58.65
41040;BME280;48586;50.122;18.972;2023-04-21T04:17:19;98678.63;;;6.85;58.69
41040;BME280;48586;50.122;18.972;2023-04-21T04:19:29;98683.50;;;6.88;58.79
41040;BME280;48586;50.122;18.972;2023-04-21T04:21:34;98684.09;;;6.90;59.06
41040;BME280;48586;50.122;18.972;2023-04-21T04:23:38;98684.53;;;6.93;58.93
41040;BME280;48586;50.122;18.972;2023-04-21T04:25:45;98685.75;;;6.97;59.12
41040;BME280;48586;50.122;18.972;2023-04-21T04:27:50;98685.94;;;7.03;59.19
41040;BME280;48586;50.122;18.972;2023-04-21T04:29:54;98691.66;;;7.06;59.24
41040;BME280;48586;50.122;18.972;2023-04-21T04:31:59;98692.25;;;7.15;59.36
41040;BME280;48586;50.122;18.972;2023-04-21T04:34:04;98695.72;;;7.22;58.93
41040;BME280;48586;50.122;18.972;2023-04-21T04:36:09;98691.22;;;7.29;59.01
41040;BME280;48586;50.122;18.972;2023-04-21T04:38:14;98694.91;;;7.35;59.17
41040;BME280;48586;50.122;18.972;2023-04-21T04:40:19;98694.88;;;7.41;59.14
41040;BME280;48586;50.122;18.972;2023-04-21T04:42:26;98693.88;;;7.49;59.05
41040;BME280;48586;50.122;18.972;2023-04-21T04:44:30;98692.00;;;7.56;58.96
41040;BME280;48586;50.122;18.972;2023-04-21T04:46:35;98695.88;;;7.60;59.10
41040;BME280;48586;50.122;18.972;2023-04-21T04:48:39;98689.75;;;7.66;58.99
41040;BME280;48586;50.122;18.972;2023-04-21T04:50:43;98692.16;;;7.74;59.25
41040;BME280;48586;50.122;18.972;2023-04-21T04:52:49;98685.00;;;7.82;59.17
41040;BME280;48586;50.122;18.972;2023-04-21T04:54:54;98699.28;;;7.87;59.24
41040;BME280;48586;50.122;18.972;2023-04-21T04:56:58;98691.50;;;7.92;59.01
41040;BME280;48586;50.122;18.972;2023-04-21T04:59:06;98694.09;;;7.99;58.98
41040;BME280;48586;50.122;18.972;2023-04-21T05:01:11;98698.59;;;8.05;58.87
41040;BME280;48586;50.122;18.972;2023-04-21T05:03:17;98690.59;;;8.12;58.95
41040;BME280;48586;50.122;18.972;2023-04-21T05:05:22;98693.22;;;8.18;58.79
41040;BME280;48586;50.122;18.972;2023-04-21T05:07:27;98689.69;;;8.24;58.90
41040;BME280;48586;50.122;18.972;2023-04-21T05:09:32;98690.50;;;8.32;58.82
41040;BME280;48586;50.122;18.972;2023-04-21T05:11:39;98699.03;;;8.40;58.61
41040;BME280;48586;50.122;18.972;2023-04-21T05:13:43;98691.63;;;8.49;58.48
41040;BME280;48586;50.122;18.972;2023-04-21T05:15:56;98695.88;;;8.57;58.21
41040;BME280;48586;50.122;18.972;2023-04-21T05:18:03;98694.56;;;8.66;57.94
41040;BME280;48586;50.122;18.972;2023-04-21T05:20:09;98690.03;;;8.73;58.04
41040;BME280;48586;50.122;18.972;2023-04-21T05:22:13;98689.56;;;8.83;57.54
41040;BME280;48586;50.122;18.972;2023-04-21T05:24:18;98689.06;;;8.92;57.35
41040;BME280;48586;50.122;18.972;2023-04-21T05:26:25;98684.94;;;9.03;57.17
41040;BME280;48586;50.122;18.972;2023-04-21T05:28:31;98691.94;;;9.16;57.04
41040;BME280;48586;50.122;18.972;2023-04-21T05:30:37;98694.72;;;9.28;56.69
41040;BME280;48586;50.122;18.972;2023-04-21T05:32:45;98695.03;;;9.38;56.33
41040;BME280;48586;50.122;18.972;2023-04-21T05:34:51;98691.63;;;9.49;55.82
41040;BME280;48586;50.122;18.972;2023-04-21T05:36:57;98689.50;;;9.58;55.58
41040;BME280;48586;50.122;18.972;2023-04-21T05:39:02;98694.31;;;9.67;54.89
41040;BME280;48586;50.122;18.972;2023-04-21T05:41:06;98693.81;;;9.77;54.87
41040;BME280;48586;50.122;18.972;2023-04-21T05:43:12;98689.59;;;9.88;55.16
41040;BME280;48586;50.122;18.972;2023-04-21T05:45:17;98695.41;;;9.96;54.59
41040;BME280;48586;50.122;18.972;2023-04-21T05:47:21;98696.72;;;10.06;54.69
41040;BME280;48586;50.122;18.972;2023-04-21T05:49:29;98694.81;;;10.13;54.33
41040;BME280;48586;50.122;18.972;2023-04-21T05:51:34;98695.31;;;10.21;54.30
41040;BME280;48586;50.122;18.972;2023-04-21T05:53:39;98693.94;;;10.31;53.88
41040;BME280;48586;50.122;18.972;2023-04-21T05:55:45;98696.31;;;10.39;53.74
41040;BME280;48586;50.122;18.972;2023-04-21T05:57:50;98687.22;;;10.46;53.69
41040;BME280;48586;50.122;18.972;2023-04-21T05:59:54;98691.41;;;10.54;52.82
41040;BME280;48586;50.122;18.972;2023-04-21T06:01:59;98681.47;;;10.61;52.90
41040;BME280;48586;50.122;18.972;2023-04-21T06:04:03;98683.81;;;10.69;52.66
41040;BME280;48586;50.122;18.972;2023-04-21T06:06:10;98687.19;;;10.77;52.48
41040;BME280;48586;50.122;18.972;2023-04-21T06:08:15;98685.00;;;10.85;51.94
41040;BME280;48586;50.122;18.972;2023-04-21T06:10:20;98682.00;;;10.93;51.55
41040;BME280;48586;50.122;18.972;2023-04-21T06:12:25;98685.34;;;11.00;50.92
41040;BME280;48586;50.122;18.972;2023-04-21T06:14:31;98689.31;;;11.10;50.90
41040;BME280;48586;50.122;18.972;2023-04-21T06:16:37;98690.81;;;11.17;50.95
41040;BME280;48586;50.122;18.972;2023-04-21T06:18:42;98692.09;;;11.26;50.87
41040;BME280;48586;50.122;18.972;2023-04-21T06:20:49;98690.69;;;11.36;50.63
41040;BME280;48586;50.122;18.972;2023-04-21T06:22:57;98690.13;;;11.45;50.54
41040;BME280;48586;50.122;18.972;2023-04-21T06:25:02;98687.94;;;11.54;49.94
41040;BME280;48586;50.122;18.972;2023-04-21T06:27:11;98690.00;;;11.64;49.36
41040;BME280;48586;50.122;18.972;2023-04-21T06:29:16;98692.34;;;11.72;48.57
41040;BME280;48586;50.122;18.972;2023-04-21T06:31:21;98688.81;;;11.83;49.21
41040;BME280;48586;50.122;18.972;2023-04-21T06:33:28;98686.38;;;11.93;49.50
41040;BME280;48586;50.122;18.972;2023-04-21T06:35:33;98684.38;;;12.00;49.98
41040;BME280;48586;50.122;18.972;2023-04-21T06:37:38;98681.66;;;12.12;50.88
41040;BME280;48586;50.122;18.972;2023-04-21T06:39:47;98680.22;;;12.21;49.26
41040;BME280;48586;50.122;18.972;2023-04-21T06:41:52;98680.09;;;12.28;49.15
41040;BME280;48586;50.122;18.972;2023-04-21T06:44:02;98683.75;;;12.39;49.47
41040;BME280;48586;50.122;18.972;2023-04-21T06:46:07;98687.66;;;12.48;48.79
41040;BME280;48586;50.122;18.972;2023-04-21T06:48:12;98678.47;;;12.56;48.78
41040;BME280;48586;50.122;18.972;2023-04-21T06:50:18;98679.13;;;12.63;47.88
41040;BME280;48586;50.122;18.972;2023-04-21T06:52:24;98685.94;;;12.70;46.69
41040;BME280;48586;50.122;18.972;2023-04-21T06:54:28;98688.69;;;12.75;45.67
41040;BME280;48586;50.122;18.972;2023-04-21T06:56:36;98675.53;;;12.86;46.85
41040;BME280;48586;50.122;18.972;2023-04-21T06:58:43;98679.09;;;12.91;46.35
41040;BME280;48586;50.122;18.972;2023-04-21T07:00:48;98686.69;;;12.99;46.57
41040;BME280;48586;50.122;18.972;2023-04-21T07:02:53;98691.41;;;13.09;46.47
41040;BME280;48586;50.122;18.972;2023-04-21T07:04:58;98688.56;;;13.16;45.97
41040;BME280;48586;50.122;18.972;2023-04-21T07:07:04;98686.28;;;13.24;45.99
41040;BME280;48586;50.122;18.972;2023-04-21T07:09:09;98686.94;;;13.32;45.51
41040;BME280;48586;50.122;18.972;2023-04-21T07:11:13;98680.13;;;13.41;45.78
41040;BME280;48586;50.122;18.972;2023-04-21T07:13:20;98688.53;;;13.49;45.61
41040;BME280;48586;50.122;18.972;2023-04-21T07:15:24;98684.63;;;13.57;45.79
41040;BME280;48586;50.122;18.972;2023-04-21T07:17:29;98673.72;;;13.64;45.65
41040;BME280;48586;50.122;18.972;2023-04-21T07:19:35;98685.63;;;13.73;45.28
41040;BME280;48586;50.122;18.972;2023-04-21T07:21:40;98679.59;;;13.83;46.49
41040;BME280;48586;50.122;18.972;2023-04-21T07:23:46;98684.50;;;13.91;45.19
41040;BME280;48586;50.122;18.972;2023-04-21T07:25:51;98683.28;;;13.98;45.25
41040;BME280;48586;50.122;18.972;2023-04-21T07:27:55;98674.03;;;14.06;44.86
41040;BME280;48586;50.122;18.972;2023-04-21T07:30:05;98676.53;;;14.13;43.29
41040;BME280;48586;50.122;18.972;2023-04-21T07:32:11;98675.50;;;14.19;44.44
41040;BME280;48586;50.122;18.972;2023-04-21T07:34:17;98669.97;;;14.25;45.01
41040;BME280;48586;50.122;18.972;2023-04-21T07:36:22;98673.00;;;14.34;44.51
41040;BME280;48586;50.122;18.972;2023-04-21T07:38:28;98673.59;;;14.41;43.38
41040;BME280;48586;50.122;18.972;2023-04-21T07:40:34;98668.59;;;14.50;44.36
41040;BME280;48586;50.122;18.972;2023-04-21T07:42:40;98667.84;;;14.60;43.89
41040;BME280;48586;50.122;18.972;2023-04-21T07:44:46;98659.63;;;14.66;43.32
41040;BME280;48586;50.122;18.972;2023-04-21T07:46:54;98658.34;;;14.74;44.42
41040;BME280;48586;50.122;18.972;2023-04-21T07:48:59;98663.19;;;14.77;41.45
41040;BME280;48586;50.122;18.972;2023-04-21T07:51:04;98660.81;;;14.81;40.38
41040;BME280;48586;50.122;18.972;2023-04-21T07:53:09;98664.41;;;14.91;42.15
41040;BME280;48586;50.122;18.972;2023-04-21T07:55:15;98663.41;;;15.03;41.64
41040;BME280;48586;50.122;18.972;2023-04-21T07:57:19;98661.06;;;15.11;41.83
41040;BME280;48586;50.122;18.972;2023-04-21T07:59:24;98659.00;;;15.23;41.53
41040;BME280;48586;50.122;18.972;2023-04-21T08:01:29;98657.75;;;15.36;42.56
41040;BME280;48586;50.122;18.972;2023-04-21T08:03:36;98653.25;;;15.47;42.68
41040;BME280;48586;50.122;18.972;2023-04-21T08:05:41;98662.44;;;15.56;42.91
41040;BME280;48586;50.122;18.972;2023-04-21T08:07:46;98653.09;;;15.64;43.24
41040;BME280;48586;50.122;18.972;2023-04-21T08:09:51;98653.63;;;15.71;41.94
41040;BME280;48586;50.122;18.972;2023-04-21T08:11:56;98659.59;;;15.78;42.07
41040;BME280;48586;50.122;18.972;2023-04-21T08:14:04;98655.84;;;15.84;41.77
41040;BME280;48586;50.122;18.972;2023-04-21T08:16:10;98657.53;;;15.90;41.14
41040;BME280;48586;50.122;18.972;2023-04-21T08:18:15;98653.50;;;15.98;42.05
41040;BME280;48586;50.122;18.972;2023-04-21T08:20:23;98652.97;;;16.01;40.69
41040;BME280;48586;50.122;18.972;2023-04-21T08:22:28;98646.56;;;16.07;39.70
41040;BME280;48586;50.122;18.972;2023-04-21T08:24:33;98646.28;;;16.14;39.22
41040;BME280;48586;50.122;18.972;2023-04-21T08:26:39;98640.69;;;16.20;40.26
41040;BME280;48586;50.122;18.972;2023-04-21T08:28:45;98643.38;;;16.25;39.74
41040;BME280;48586;50.122;18.972;2023-04-21T08:30:50;98639.38;;;16.33;39.50
41040;BME280;48586;50.122;18.972;2023-04-21T08:32:56;98643.94;;;16.43;40.11
41040;BME280;48586;50.122;18.972;2023-04-21T08:35:01;98646.13;;;16.51;40.43
41040;BME280;48586;50.122;18.972;2023-04-21T08:37:09;98639.13;;;16.60;40.77
41040;BME280;48586;50.122;18.972;2023-04-21T08:39:14;98632.41;;;16.68;39.14
41040;BME280;48586;50.122;18.972;2023-04-21T08:41:19;98635.88;;;16.79;40.09
41040;BME280;48586;50.122;18.972;2023-04-21T08:43:27;98638.06;;;16.87;39.13
41040;BME280;48586;50.122;18.972;2023-04-21T08:45:33;98635.66;;;16.95;38.50
41040;BME280;48586;50.122;18.972;2023-04-21T08:47:40;98631.88;;;17.07;39.42
41040;BME280;48586;50.122;18.972;2023-04-21T08:49:49;98630.78;;;17.18;38.40
41040;BME280;48586;50.122;18.972;2023-04-21T08:51:57;98626.72;;;17.31;38.60
41040;BME280;48586;50.122;18.972;2023-04-21T08:54:06;98624.53;;;17.43;37.97
41040;BME280;48586;50.122;18.972;2023-04-21T08:56:11;98620.44;;;17.56;37.06
41040;BME280;48586;50.122;18.972;2023-04-21T08:58:16;98618.00;;;17.69;35.65
41040;BME280;48586;50.122;18.972;2023-04-21T09:00:22;98622.78;;;17.83;37.87
41040;BME280;48586;50.122;18.972;2023-04-21T09:02:27;98615.72;;;17.92;34.88
41040;BME280;48586;50.122;18.972;2023-04-21T09:04:33;98623.25;;;18.00;32.77
41040;BME280;48586;50.122;18.972;2023-04-21T09:06:39;98609.19;;;18.08;32.03
41040;BME280;48586;50.122;18.972;2023-04-21T09:08:57;98610.41;;;18.26;33.97
41040;BME280;48586;50.122;18.972;2023-04-21T09:11:13;98612.69;;;18.48;33.52
41040;BME280;48586;50.122;18.972;2023-04-21T09:13:18;98602.31;;;18.70;32.04
41040;BME280;48586;50.122;18.972;2023-04-21T09:15:23;98597.88;;;18.85;31.48
41040;BME280;48586;50.122;18.972;2023-04-21T09:17:29;98605.78;;;19.05;33.46
41040;BME280;48586;50.122;18.972;2023-04-21T09:19:36;98608.84;;;19.22;33.61
41040;BME280;48586;50.122;18.972;2023-04-21T09:21:43;98600.03;;;19.41;33.15
41040;BME280;48586;50.122;18.972;2023-04-21T09:23:50;98597.66;;;19.58;30.32
41040;BME280;48586;50.122;18.972;2023-04-21T09:25:55;98593.31;;;19.81;32.13
41040;BME280;48586;50.122;18.972;2023-04-21T09:28:02;98564.81;;;20.08;30.58
41040;BME280;48586;50.122;18.972;2023-04-21T09:30:12;98586.91;;;20.34;30.45
41040;BME280;48586;50.122;18.972;2023-04-21T09:32:20;98580.28;;;20.59;30.37
41040;BME280;48586;50.122;18.972;2023-04-21T09:34:25;98573.94;;;20.82;27.62
41040;BME280;48586;50.122;18.972;2023-04-21T09:36:31;98576.50;;;21.06;27.03
41040;BME280;48586;50.122;18.972;2023-04-21T09:38:35;98577.16;;;21.31;26.84
41040;BME280;48586;50.122;18.972;2023-04-21T09:40:40;98572.28;;;21.55;26.33
41040;BME280;48586;50.122;18.972;2023-04-21T09:42:45;98580.66;;;21.72;25.40
41040;BME280;48586;50.122;18.972;2023-04-21T09:44:52;98578.28;;;21.93;25.22
41040;BME280;48586;50.122;18.972;2023-04-21T09:47:00;98576.94;;;22.18;24.91
41040;BME280;48586;50.122;18.972;2023-04-21T09:49:08;98571.72;;;22.44;25.19
41040;BME280;48586;50.122;18.972;2023-04-21T09:51:17;98579.84;;;22.67;24.66
41040;BME280;48586;50.122;18.972;2023-04-21T09:53:27;98572.88;;;22.75;23.99
41040;BME280;48586;50.122;18.972;2023-04-21T09:55:35;98578.34;;;22.83;24.27
41040;BME280;48586;50.122;18.972;2023-04-21T09:57:41;98573.97;;;22.96;24.19
41040;BME280;48586;50.122;18.972;2023-04-21T09:59:59;98569.13;;;23.15;24.68
41040;BME280;48586;50.122;18.972;2023-04-21T10:02:07;98568.88;;;23.34;23.79
41040;BME280;48586;50.122;18.972;2023-04-21T10:04:14;98566.22;;;23.52;23.92
41040;BME280;48586;50.122;18.972;2023-04-21T10:06:22;98568.81;;;23.65;23.56
41040;BME280;48586;50.122;18.972;2023-04-21T10:08:28;98569.78;;;23.69;22.02
41040;BME280;48586;50.122;18.972;2023-04-21T10:10:33;98568.47;;;23.58;21.24
41040;BME280;48586;50.122;18.972;2023-04-21T10:12:38;98561.88;;;23.42;21.49
41040;BME280;48586;50.122;18.972;2023-04-21T10:14:49;98567.72;;;23.27;21.73
41040;BME280;48586;50.122;18.972;2023-04-21T10:17:03;98565.56;;;23.06;21.58
41040;BME280;48586;50.122;18.972;2023-04-21T10:19:25;98564.78;;;22.83;21.65
41040;BME280;48586;50.122;18.972;2023-04-21T10:21:36;98569.19;;;22.70;23.64
41040;BME280;48586;50.122;18.972;2023-04-21T10:23:42;98566.91;;;22.64;22.82
41040;BME280;48586;50.122;18.972;2023-04-21T10:25:48;98573.28;;;22.59;23.55
41040;BME280;48586;50.122;18.972;2023-04-21T10:27:53;98565.25;;;22.54;23.75
41040;BME280;48586;50.122;18.972;2023-04-21T10:29:57;98560.06;;;22.44;22.87
41040;BME280;48586;50.122;18.972;2023-04-21T10:32:04;98557.44;;;22.30;23.13
41040;BME280;48586;50.122;18.972;2023-04-21T10:34:17;98551.63;;;22.09;22.50
41040;BME280;48586;50.122;18.972;2023-04-21T10:36:24;98551.81;;;21.90;23.84
41040;BME280;48586;50.122;18.972;2023-04-21T10:38:33;98552.00;;;21.80;22.93
41040;BME280;48586;50.122;18.972;2023-04-21T10:40:38;98555.81;;;21.93;24.76
41040;BME280;48586;50.122;18.972;2023-04-21T10:42:43;98543.88;;;22.16;22.93
41040;BME280;48586;50.122;18.972;2023-04-21T10:44:51;98542.31;;;22.38;22.85
41040;BME280;48586;50.122;18.972;2023-04-21T10:47:06;98539.31;;;22.70;23.63
41040;BME280;48586;50.122;18.972;2023-04-21T10:49:21;98545.47;;;23.16;22.66
41040;BME280;48586;50.122;18.972;2023-04-21T10:51:29;98534.13;;;23.71;22.62
41040;BME280;48586;50.122;18.972;2023-04-21T10:53:42;98540.72;;;24.31;21.39
41040;BME280;48586;50.122;18.972;2023-04-21T10:55:48;98536.06;;;24.49;18.86
41040;BME280;48586;50.122;18.972;2023-04-21T10:57:52;98530.94;;;24.47;20.18
41040;BME280;48586;50.122;18.972;2023-04-21T10:59:57;98528.06;;;24.43;20.31
41040;BME280;48586;50.122;18.972;2023-04-21T11:02:11;98530.50;;;24.36;20.39
41040;BME280;48586;50.122;18.972;2023-04-21T11:04:18;98540.53;;;24.18;20.35